Bowens Corners, New York
Current Conditions -  °F | °C
As of 3:54 PM on Monday 24 Nov 2014 (Local Time) from KFZY Reporting Station
Broken Clouds Broken Clouds  
Wind Chill: 66°   Ceiling: 12000
Heat Index: 66°   Visibility: 10mi
Dew Point: 51°   Wind: 16mph
Humidity: 59%   Direction: 200°SSW
Pressure: 29.33"   Gusts: NA
Location:  43.3608°N, 76.3536°W
Report Text: KFZY 242054Z AUTO 20014KT 10SM FEW060 SCT095 BKN120 19/11 A2933 RMK AO2 PK WND 19031/1955 RAB1957E09B40E51 SLP931 P0000 60000 T01890106 53002
Loading
Personal Weather Stations






























Interactive Weather Map New forecast layout! Learn more

10-Day Weather Forecast

Advertisements
Track Severe Weather on mobile